createdAt,value
2017-08-31T00:00:58.693Z,20.70
2017-08-31T00:03:26.254Z,20.70
2017-08-31T00:05:53.849Z,20.60
2017-08-31T00:08:21.635Z,20.60
2017-08-31T00:10:49.376Z,20.50
2017-08-31T00:13:17.139Z,20.50
2017-08-31T00:15:44.902Z,20.40
2017-08-31T00:18:12.499Z,20.40
2017-08-31T00:20:40.853Z,20.40
2017-08-31T00:23:08.496Z,20.30
2017-08-31T00:25:36.239Z,20.30
2017-08-31T00:28:03.928Z,20.30
2017-08-31T00:30:31.489Z,20.30
2017-08-31T00:32:59.231Z,20.20
2017-08-31T00:35:27.028Z,20.20
2017-08-31T00:37:54.614Z,20.10
2017-08-31T00:40:22.234Z,20.10
2017-08-31T00:42:49.997Z,20.10
2017-08-31T00:45:17.568Z,20.10
2017-08-31T00:47:45.217Z,20.10
2017-08-31T00:50:12.788Z,20.10
2017-08-31T00:52:40.442Z,20.10
2017-08-31T00:55:08.012Z,20.10
2017-08-31T00:57:35.675Z,20.10
2017-08-31T01:00:03.253Z,20.10
2017-08-31T01:02:30.823Z,20.20
2017-08-31T01:04:58.500Z,20.20
2017-08-31T01:07:26.106Z,20.10
2017-08-31T01:09:54.475Z,20.10
2017-08-31T01:12:22.215Z,20.10
2017-08-31T01:14:50.312Z,20.10
2017-08-31T01:17:17.919Z,20.10
2017-08-31T01:19:45.526Z,20.10
2017-08-31T01:22:13.092Z,20.10
2017-08-31T01:24:40.752Z,20.10
2017-08-31T01:27:08.515Z,20.10
2017-08-31T01:29:36.112Z,20.10
2017-08-31T01:32:03.690Z,20.20
2017-08-31T01:34:31.279Z,20.20
2017-08-31T01:36:58.855Z,20.10
2017-08-31T01:39:26.444Z,20.10
2017-08-31T01:41:54.122Z,20.20
2017-08-31T01:44:21.709Z,20.20
2017-08-31T01:46:49.278Z,20.20
2017-08-31T01:49:17.168Z,20.20
2017-08-31T01:51:44.742Z,20.30
2017-08-31T01:54:12.381Z,20.20
2017-08-31T01:56:40.919Z,20.20
2017-08-31T01:59:08.539Z,20.20
2017-08-31T02:01:36.107Z,20.30
2017-08-31T02:04:03.741Z,20.30
2017-08-31T02:06:31.455Z,20.30
2017-08-31T02:08:59.284Z,20.30
2017-08-31T02:11:27.007Z,20.30
2017-08-31T02:13:54.774Z,20.30
2017-08-31T02:16:22.363Z,20.40
2017-08-31T02:18:50.003Z,20.30
2017-08-31T02:21:17.591Z,20.40
2017-08-31T02:23:45.239Z,20.40
2017-08-31T02:26:12.999Z,20.30
2017-08-31T02:28:40.955Z,20.30
2017-08-31T02:31:08.539Z,20.30
2017-08-31T02:33:36.407Z,20.30
2017-08-31T02:36:04.055Z,20.20
2017-08-31T02:38:31.670Z,20.30
2017-08-31T02:40:59.251Z,20.20
2017-08-31T02:43:27.319Z,20.20
2017-08-31T02:45:55.124Z,20.20
2017-08-31T02:48:22.714Z,20.20
2017-08-31T02:50:50.310Z,20.20
2017-08-31T02:53:18.724Z,20.30
2017-08-31T02:55:46.478Z,20.20
2017-08-31T02:58:14.288Z,20.30
2017-08-31T03:00:42.040Z,20.20
2017-08-31T03:03:09.769Z,20.20
2017-08-31T03:05:37.507Z,20.20
2017-08-31T03:08:05.099Z,20.20
2017-08-31T03:10:32.757Z,20.20
2017-08-31T03:13:00.351Z,20.20
2017-08-31T03:15:27.923Z,20.20
2017-08-31T03:17:55.845Z,20.20
2017-08-31T03:20:23.495Z,20.10
2017-08-31T03:22:51.257Z,20.10
2017-08-31T03:25:19.026Z,20.10
2017-08-31T03:27:46.785Z,20.10
2017-08-31T03:30:14.356Z,20.10
2017-08-31T03:32:41.955Z,20.00
2017-08-31T03:35:09.545Z,20.00
2017-08-31T03:37:37.246Z,20.00
2017-08-31T03:40:04.940Z,19.90
2017-08-31T03:42:32.669Z,20.00
2017-08-31T03:45:00.463Z,20.00
2017-08-31T03:47:28.048Z,20.00
2017-08-31T03:49:56.658Z,19.90
2017-08-31T03:52:24.423Z,19.90
2017-08-31T03:54:52.006Z,19.90
2017-08-31T03:57:19.642Z,20.00
2017-08-31T03:59:47.247Z,20.00
2017-08-31T04:02:14.878Z,19.90
2017-08-31T04:04:42.933Z,19.90
2017-08-31T04:07:10.707Z,19.90
2017-08-31T04:09:38.290Z,19.90
2017-08-31T04:12:05.895Z,19.90
2017-08-31T04:14:33.485Z,19.90
2017-08-31T04:17:01.138Z,19.80
2017-08-31T04:19:29.321Z,19.80
2017-08-31T04:21:56.987Z,19.70
2017-08-31T04:24:24.586Z,19.70
2017-08-31T04:26:53.114Z,19.80
2017-08-31T04:29:20.751Z,19.70
2017-08-31T04:31:48.363Z,19.70
2017-08-31T04:34:16.210Z,19.70
2017-08-31T04:36:43.851Z,19.70
2017-08-31T04:39:11.434Z,19.70
2017-08-31T04:41:39.020Z,19.60
2017-08-31T04:44:06.651Z,19.60
2017-08-31T04:46:34.722Z,19.50
2017-08-31T04:49:02.373Z,19.50
2017-08-31T04:51:29.955Z,19.50
2017-08-31T04:53:57.593Z,19.60
2017-08-31T04:56:25.182Z,19.50
2017-08-31T04:58:52.817Z,19.50
2017-08-31T05:01:20.885Z,19.40
2017-08-31T05:03:48.455Z,19.40
2017-08-31T05:06:16.111Z,19.40
2017-08-31T05:08:43.675Z,19.40
2017-08-31T05:11:11.244Z,19.40
2017-08-31T05:13:38.827Z,19.40
2017-08-31T05:16:06.395Z,19.40
2017-08-31T05:18:34.010Z,19.30
2017-08-31T05:21:01.583Z,19.30
2017-08-31T05:23:29.243Z,19.30
2017-08-31T05:25:56.968Z,19.30
2017-08-31T05:28:24.607Z,19.20
2017-08-31T05:30:52.202Z,19.30
2017-08-31T05:33:19.792Z,19.30
2017-08-31T05:35:47.541Z,19.30
2017-08-31T05:38:15.244Z,19.30
2017-08-31T05:40:42.820Z,19.20
2017-08-31T05:43:10.481Z,19.20
2017-08-31T05:45:38.049Z,19.20
2017-08-31T05:48:05.671Z,19.10
2017-08-31T05:50:33.302Z,19.10
2017-08-31T05:53:00.871Z,19.10
2017-08-31T05:55:28.618Z,19.10
2017-08-31T05:57:57.615Z,19.10
2017-08-31T06:00:25.223Z,19.00
2017-08-31T06:02:52.828Z,19.00
2017-08-31T06:05:20.435Z,19.00
2017-08-31T06:07:48.026Z,19.00
2017-08-31T06:10:15.615Z,18.90
2017-08-31T06:12:43.278Z,18.90
2017-08-31T06:15:11.333Z,18.90
2017-08-31T06:17:38.900Z,18.90
2017-08-31T06:20:06.547Z,18.90
2017-08-31T06:22:34.223Z,18.80
2017-08-31T06:25:02.093Z,18.70
2017-08-31T06:27:29.821Z,18.70
2017-08-31T06:29:57.416Z,18.60
2017-08-31T06:32:25.039Z,18.60
2017-08-31T06:34:53.524Z,18.70
2017-08-31T06:37:21.205Z,18.60
2017-08-31T06:39:48.859Z,18.60
2017-08-31T06:42:16.726Z,18.50
2017-08-31T06:44:44.411Z,18.50
2017-08-31T06:47:11.978Z,18.60
2017-08-31T06:49:39.833Z,18.60
2017-08-31T06:55:11.611Z,18.60
2017-08-31T06:57:39.369Z,18.60
2017-08-31T07:00:07.124Z,18.50
2017-08-31T07:02:34.889Z,18.60
2017-08-31T07:05:02.653Z,18.50
2017-08-31T07:07:31.095Z,18.30
2017-08-31T07:09:58.678Z,18.00
2017-08-31T07:12:26.277Z,17.80
2017-08-31T07:14:54.129Z,17.70
2017-08-31T07:17:21.786Z,17.70
2017-08-31T07:19:49.470Z,17.70
2017-08-31T07:22:17.071Z,17.80
2017-08-31T07:24:44.676Z,17.70
2017-08-31T07:27:12.275Z,17.50
2017-08-31T07:29:39.969Z,17.60
2017-08-31T07:32:07.576Z,17.60
2017-08-31T07:34:35.150Z,17.60
2017-08-31T07:37:03.295Z,17.60
2017-08-31T07:39:31.045Z,17.50
2017-08-31T07:41:58.643Z,17.40
2017-08-31T07:44:26.221Z,17.30
2017-08-31T07:46:54.507Z,17.30
2017-08-31T07:49:22.071Z,17.40
2017-08-31T07:51:49.970Z,17.40
2017-08-31T07:54:17.534Z,17.40
2017-08-31T07:56:45.113Z,17.40
2017-08-31T07:59:12.691Z,17.50
2017-08-31T08:01:40.270Z,17.40
2017-08-31T08:04:07.855Z,17.30
2017-08-31T08:06:35.423Z,17.20
2017-08-31T08:09:03.003Z,17.20
2017-08-31T08:11:30.711Z,17.20
2017-08-31T08:13:58.567Z,17.10
2017-08-31T08:16:26.258Z,17.10
2017-08-31T08:18:54.030Z,16.90
2017-08-31T08:21:21.591Z,16.80
2017-08-31T08:23:49.555Z,16.70
2017-08-31T08:26:17.290Z,16.80
2017-08-31T08:28:44.877Z,16.70
2017-08-31T08:31:12.506Z,16.80
2017-08-31T08:33:40.151Z,16.80
2017-08-31T08:36:07.735Z,16.80
2017-08-31T08:38:35.548Z,16.90
2017-08-31T08:41:03.296Z,16.90
2017-08-31T08:43:30.938Z,16.90
2017-08-31T08:45:58.515Z,16.80
2017-08-31T08:48:26.100Z,16.90
2017-08-31T08:50:53.670Z,16.90
2017-08-31T08:53:21.259Z,16.80
2017-08-31T08:55:48.939Z,16.70
2017-08-31T08:58:16.567Z,16.70
2017-08-31T09:00:44.139Z,16.70
2017-08-31T09:03:11.919Z,16.80
2017-08-31T09:05:39.506Z,16.80
2017-08-31T09:08:07.129Z,16.80
2017-08-31T09:10:34.710Z,16.80
2017-08-31T09:13:02.273Z,16.80
2017-08-31T09:15:30.126Z,16.80
2017-08-31T09:17:57.890Z,16.70
2017-08-31T09:20:25.475Z,16.80
2017-08-31T09:22:53.091Z,16.60
2017-08-31T09:25:20.675Z,16.40
2017-08-31T09:27:48.338Z,16.40
2017-08-31T09:30:15.928Z,16.30
2017-08-31T09:32:43.550Z,16.40
2017-08-31T09:35:11.134Z,16.50
2017-08-31T09:37:38.697Z,16.40
2017-08-31T09:40:06.287Z,16.60
2017-08-31T09:42:33.990Z,16.60
2017-08-31T09:45:01.772Z,16.50
2017-08-31T09:47:29.529Z,16.40
2017-08-31T09:49:57.094Z,16.50
2017-08-31T09:52:24.682Z,16.40
2017-08-31T09:54:52.256Z,16.40
2017-08-31T09:57:19.972Z,16.50
2017-08-31T09:59:47.709Z,16.60
2017-08-31T10:02:15.503Z,16.60
2017-08-31T10:04:43.370Z,16.70
2017-08-31T10:07:11.031Z,16.60
2017-08-31T10:09:38.600Z,16.50
2017-08-31T10:12:06.235Z,16.60
2017-08-31T10:14:33.790Z,16.60
2017-08-31T10:17:02.095Z,16.30
2017-08-31T10:19:29.690Z,16.30
2017-08-31T10:21:57.301Z,16.30
2017-08-31T10:24:25.055Z,16.30
2017-08-31T10:26:52.629Z,16.40
2017-08-31T10:29:20.247Z,16.50
2017-08-31T10:31:47.816Z,16.50
2017-08-31T10:34:15.491Z,16.20
2017-08-31T10:36:43.069Z,16.20
2017-08-31T10:39:10.715Z,16.20
2017-08-31T10:41:38.298Z,16.10
2017-08-31T10:44:05.919Z,16.10
2017-08-31T10:46:33.679Z,16.10
2017-08-31T10:49:01.452Z,16.00
2017-08-31T10:51:29.207Z,16.10
2017-08-31T10:53:56.788Z,16.10
2017-08-31T10:56:24.355Z,16.10
2017-08-31T10:58:51.931Z,16.20
2017-08-31T11:01:19.495Z,16.20
2017-08-31T11:03:47.138Z,16.20
2017-08-31T11:06:14.868Z,16.20
2017-08-31T11:08:42.449Z,16.00
2017-08-31T11:11:10.028Z,16.20
2017-08-31T11:13:37.622Z,16.20
2017-08-31T11:16:05.342Z,16.10
2017-08-31T11:18:32.913Z,16.20
2017-08-31T11:21:00.502Z,16.50
2017-08-31T11:23:28.127Z,16.60
2017-08-31T11:25:55.783Z,16.70
2017-08-31T11:28:23.529Z,16.80
2017-08-31T11:30:51.247Z,16.80
2017-08-31T11:33:18.838Z,16.90
2017-08-31T11:35:46.642Z,16.80
2017-08-31T11:38:14.904Z,16.70
2017-08-31T11:40:42.671Z,16.70
2017-08-31T11:43:11.023Z,16.60
2017-08-31T11:45:38.809Z,16.80
2017-08-31T11:48:06.562Z,17.00
2017-08-31T11:50:34.349Z,17.10
2017-08-31T11:53:02.088Z,17.10
2017-08-31T11:55:29.671Z,16.90
2017-08-31T11:57:57.291Z,16.60
2017-08-31T12:00:25.100Z,16.70
2017-08-31T12:02:52.851Z,16.50
2017-08-31T12:05:20.719Z,16.50
2017-08-31T12:07:48.363Z,16.50
2017-08-31T12:10:16.135Z,16.70
2017-08-31T12:12:43.853Z,16.80
2017-08-31T12:15:11.434Z,16.90
2017-08-31T12:17:40.031Z,17.30
2017-08-31T12:20:07.591Z,17.30
2017-08-31T12:22:36.130Z,17.20
2017-08-31T12:25:03.695Z,17.40
2017-08-31T12:27:31.275Z,17.20
2017-08-31T12:29:58.851Z,17.00
2017-08-31T12:32:26.799Z,17.10
2017-08-31T12:34:54.388Z,17.10
2017-08-31T12:37:22.099Z,17.30
2017-08-31T12:39:49.903Z,17.10
2017-08-31T12:42:17.475Z,17.40
2017-08-31T12:44:45.143Z,17.50
2017-08-31T12:47:12.935Z,17.50
2017-08-31T12:49:40.575Z,17.40
2017-08-31T12:52:08.928Z,17.20
2017-08-31T12:54:36.790Z,17.10
2017-08-31T12:57:04.576Z,17.20
2017-08-31T12:59:32.282Z,17.20
2017-08-31T13:01:59.866Z,17.40
2017-08-31T13:04:27.562Z,17.40
2017-08-31T13:06:55.331Z,17.50
2017-08-31T13:09:23.355Z,17.70
2017-08-31T13:11:51.260Z,17.60
2017-08-31T13:14:18.888Z,17.50
2017-08-31T13:16:46.666Z,17.50
2017-08-31T13:19:14.419Z,17.40
2017-08-31T13:21:42.018Z,17.50
2017-08-31T13:24:09.643Z,17.70
2017-08-31T13:26:37.239Z,17.70
2017-08-31T13:29:04.874Z,17.70
2017-08-31T13:31:32.654Z,17.60
2017-08-31T13:34:00.399Z,17.60
2017-08-31T13:36:27.991Z,17.50
2017-08-31T13:38:55.636Z,17.60
2017-08-31T13:41:23.383Z,17.50
2017-08-31T13:43:51.165Z,17.20
2017-08-31T13:46:18.755Z,17.20
2017-08-31T13:48:46.324Z,17.00
2017-08-31T13:51:14.136Z,16.90
2017-08-31T13:53:41.896Z,16.90
2017-08-31T13:56:09.480Z,17.00
2017-08-31T13:58:37.111Z,17.10
2017-08-31T14:01:04.708Z,16.90
2017-08-31T14:03:32.455Z,16.80
2017-08-31T14:06:00.109Z,16.70
2017-08-31T14:08:27.864Z,16.80
2017-08-31T14:10:55.423Z,16.40
2017-08-31T14:13:23.079Z,16.20
2017-08-31T14:15:50.843Z,16.30
2017-08-31T14:18:18.430Z,16.40
2017-08-31T14:20:46.047Z,16.40
2017-08-31T14:23:13.632Z,16.30
2017-08-31T14:25:41.296Z,16.30
2017-08-31T14:28:09.440Z,16.50
2017-08-31T14:30:37.103Z,16.60
2017-08-31T14:33:04.683Z,16.20
2017-08-31T14:35:32.343Z,16.00
2017-08-31T14:38:00.603Z,16.00
2017-08-31T14:40:28.172Z,15.80
2017-08-31T14:42:55.924Z,16.00
2017-08-31T14:45:24.710Z,16.10
2017-08-31T14:47:53.051Z,15.80
2017-08-31T14:50:20.747Z,15.70
2017-08-31T14:52:48.526Z,15.80
2017-08-31T14:55:16.121Z,15.80
2017-08-31T14:57:43.730Z,15.80
2017-08-31T15:00:11.335Z,15.80
2017-08-31T15:02:38.971Z,15.80
2017-08-31T15:05:07.046Z,16.00
2017-08-31T15:07:34.616Z,16.20
2017-08-31T15:10:02.273Z,16.20
2017-08-31T15:12:30.448Z,16.30
2017-08-31T15:14:58.199Z,16.60
2017-08-31T15:17:25.841Z,16.80
2017-08-31T15:19:53.957Z,16.90
2017-08-31T15:22:21.527Z,17.00
2017-08-31T15:24:49.154Z,16.90
2017-08-31T15:27:16.733Z,16.60
2017-08-31T15:29:44.387Z,16.40
2017-08-31T15:32:12.150Z,16.40
2017-08-31T15:34:39.726Z,16.60
2017-08-31T15:37:07.474Z,16.60
2017-08-31T15:39:35.134Z,16.70
2017-08-31T15:42:02.884Z,16.70
2017-08-31T15:44:30.647Z,16.50
2017-08-31T15:46:58.231Z,16.50
2017-08-31T15:49:25.862Z,16.30
2017-08-31T15:51:53.499Z,16.30
2017-08-31T15:54:21.082Z,16.30
2017-08-31T15:56:48.860Z,16.10
2017-08-31T15:59:16.936Z,16.10
2017-08-31T16:01:44.495Z,16.60
2017-08-31T16:04:12.447Z,16.90
2017-08-31T16:06:40.025Z,16.90
2017-08-31T16:09:07.624Z,16.90
2017-08-31T16:11:35.183Z,17.40
2017-08-31T16:14:02.769Z,18.10
2017-08-31T16:16:30.454Z,18.10
2017-08-31T16:18:58.034Z,18.30
2017-08-31T16:21:25.895Z,18.60
2017-08-31T16:23:53.833Z,17.90
2017-08-31T16:26:21.394Z,17.50
2017-08-31T16:28:48.983Z,17.30
2017-08-31T16:31:17.367Z,16.90
2017-08-31T16:33:44.957Z,16.60
2017-08-31T16:36:13.055Z,16.60
2017-08-31T16:38:41.765Z,16.80
2017-08-31T16:41:09.510Z,16.70
2017-08-31T16:43:38.205Z,16.70
2017-08-31T16:46:05.982Z,16.70
2017-08-31T16:48:33.591Z,16.50
2017-08-31T16:51:01.187Z,16.30
2017-08-31T16:53:28.757Z,16.20
2017-08-31T16:55:56.402Z,16.30
2017-08-31T16:58:24.151Z,16.30
2017-08-31T17:00:51.727Z,16.30
2017-08-31T17:03:19.316Z,16.30
2017-08-31T17:05:46.907Z,16.20
2017-08-31T17:08:14.622Z,16.20
2017-08-31T17:10:42.198Z,16.20
2017-08-31T17:13:09.811Z,16.30
2017-08-31T17:15:37.506Z,16.30
2017-08-31T17:18:05.332Z,16.20
2017-08-31T17:20:33.002Z,16.20
2017-08-31T17:23:00.560Z,16.20
2017-08-31T17:25:28.405Z,16.20
2017-08-31T17:27:56.047Z,16.20
2017-08-31T17:30:23.663Z,16.10
2017-08-31T17:32:51.322Z,16.20
2017-08-31T17:35:19.091Z,16.20
2017-08-31T17:37:46.858Z,16.20
2017-08-31T17:40:14.616Z,16.20
2017-08-31T17:42:42.174Z,16.20
2017-08-31T17:45:10.159Z,16.20
2017-08-31T17:47:37.906Z,16.20
2017-08-31T17:50:05.684Z,16.20
2017-08-31T17:52:33.246Z,16.20
2017-08-31T17:55:00.886Z,16.00
2017-08-31T17:57:28.977Z,16.00
2017-08-31T17:59:56.555Z,15.90
2017-08-31T18:02:24.182Z,16.00
2017-08-31T18:04:51.742Z,16.00
2017-08-31T18:07:19.417Z,16.20
2017-08-31T18:09:47.227Z,16.10
2017-08-31T18:12:14.815Z,16.10
2017-08-31T18:14:42.708Z,16.20
2017-08-31T18:17:10.482Z,16.20
2017-08-31T18:19:38.526Z,16.20
2017-08-31T18:22:06.101Z,16.20
2017-08-31T18:24:33.743Z,16.20
2017-08-31T18:27:01.307Z,16.10
2017-08-31T18:29:29.188Z,16.10
2017-08-31T18:31:57.159Z,16.00
2017-08-31T18:34:25.035Z,16.00
2017-08-31T18:36:52.890Z,16.00
2017-08-31T18:39:20.643Z,16.00
2017-08-31T18:41:48.398Z,15.90
2017-08-31T18:44:15.988Z,15.90
2017-08-31T18:46:43.546Z,16.00
2017-08-31T18:49:11.158Z,15.90
2017-08-31T18:51:38.819Z,15.90
2017-08-31T18:54:06.537Z,15.80
2017-08-31T18:56:34.223Z,15.80
2017-08-31T18:59:01.836Z,15.70
2017-08-31T19:01:29.416Z,15.70
2017-08-31T19:03:57.000Z,15.70
2017-08-31T19:06:24.586Z,15.70
2017-08-31T19:08:52.281Z,15.70
2017-08-31T19:11:20.045Z,15.60
2017-08-31T19:13:47.809Z,15.50
2017-08-31T19:16:15.554Z,15.50
2017-08-31T19:18:43.332Z,15.40
2017-08-31T19:21:11.402Z,15.30
2017-08-31T19:23:39.272Z,15.30
2017-08-31T19:26:07.040Z,15.30
2017-08-31T19:28:34.615Z,15.30
2017-08-31T19:31:03.098Z,15.30
2017-08-31T19:33:31.799Z,15.20
2017-08-31T19:35:59.367Z,15.30
2017-08-31T19:38:26.960Z,15.30
2017-08-31T19:40:54.539Z,15.30
2017-08-31T19:43:22.163Z,15.40
2017-08-31T19:45:49.733Z,15.30
2017-08-31T19:48:17.431Z,15.30
2017-08-31T19:50:45.175Z,15.30
2017-08-31T19:53:13.747Z,15.30
2017-08-31T19:55:41.307Z,15.30
2017-08-31T19:58:09.389Z,15.30
2017-08-31T20:00:37.150Z,15.30
2017-08-31T20:03:04.923Z,15.20
2017-08-31T20:05:32.963Z,15.20
2017-08-31T20:08:01.616Z,15.30
2017-08-31T20:10:29.183Z,15.30
2017-08-31T20:12:56.742Z,15.30
2017-08-31T20:15:24.357Z,15.10
2017-08-31T20:17:52.106Z,15.10
2017-08-31T20:20:19.879Z,15.10
2017-08-31T20:22:47.450Z,15.00
2017-08-31T20:25:15.049Z,15.10
2017-08-31T20:27:42.867Z,15.10
2017-08-31T20:30:10.923Z,15.10
2017-08-31T20:32:38.687Z,15.20
2017-08-31T20:35:06.451Z,15.10
2017-08-31T20:37:34.741Z,15.10
2017-08-31T20:40:02.348Z,15.10
2017-08-31T20:42:30.031Z,15.10
2017-08-31T20:44:57.820Z,15.10
2017-08-31T20:47:25.587Z,15.30
2017-08-31T20:49:53.356Z,15.30
2017-08-31T20:52:21.395Z,15.30
2017-08-31T20:54:49.086Z,15.30
2017-08-31T20:57:16.671Z,15.20
2017-08-31T20:59:44.413Z,15.20
2017-08-31T21:02:13.079Z,15.20
2017-08-31T21:04:40.839Z,15.20
2017-08-31T21:07:08.590Z,15.10
2017-08-31T21:09:36.352Z,15.20
2017-08-31T21:12:04.252Z,15.10
2017-08-31T21:14:31.832Z,15.10
2017-08-31T21:16:59.418Z,15.00
2017-08-31T21:19:27.956Z,15.10
2017-08-31T21:21:55.767Z,13.60
2017-08-31T21:24:23.338Z,15.10
2017-08-31T21:26:51.023Z,15.10
2017-08-31T21:29:18.608Z,15.10
2017-08-31T21:31:46.171Z,15.10
2017-08-31T21:34:14.006Z,15.00
2017-08-31T21:36:41.697Z,15.00
2017-08-31T21:39:09.283Z,15.00
2017-08-31T21:41:36.864Z,15.00
2017-08-31T21:44:05.487Z,15.00
2017-08-31T21:46:33.054Z,15.00
2017-08-31T21:49:00.651Z,15.00
2017-08-31T21:51:28.211Z,15.00
2017-08-31T21:53:55.820Z,14.90
2017-08-31T21:56:23.554Z,14.80
2017-08-31T21:58:51.144Z,14.80
2017-08-31T22:01:19.430Z,14.80
2017-08-31T22:03:47.094Z,14.80
2017-08-31T22:06:14.656Z,14.80
2017-08-31T22:08:42.387Z,14.80
2017-08-31T22:11:09.968Z,14.70
2017-08-31T22:13:38.530Z,14.60
2017-08-31T22:16:06.917Z,14.70
2017-08-31T22:18:34.551Z,14.70
2017-08-31T22:21:02.491Z,14.70
2017-08-31T22:23:30.055Z,14.70
2017-08-31T22:25:57.943Z,14.70
2017-08-31T22:28:25.849Z,14.60
2017-08-31T22:30:53.443Z,14.60
2017-08-31T22:33:21.006Z,14.60
2017-08-31T22:35:49.019Z,14.50
2017-08-31T22:38:16.798Z,14.60
2017-08-31T22:40:44.543Z,14.60
2017-08-31T22:43:12.112Z,14.60
2017-08-31T22:45:39.755Z,14.60
2017-08-31T22:48:07.531Z,14.60
2017-08-31T22:50:35.096Z,14.60
2017-08-31T22:53:02.865Z,14.50
2017-08-31T22:55:30.510Z,14.50
2017-08-31T22:58:19.726Z,14.50
2017-08-31T23:00:47.547Z,14.60
2017-08-31T23:03:15.154Z,14.60
2017-08-31T23:05:42.743Z,14.50
2017-08-31T23:08:10.851Z,14.50
2017-08-31T23:10:39.191Z,14.40
2017-08-31T23:13:07.567Z,14.40
2017-08-31T23:15:35.976Z,14.40
2017-08-31T23:18:03.728Z,14.40
2017-08-31T23:20:31.494Z,14.40
2017-08-31T23:22:59.259Z,14.40
2017-08-31T23:25:27.032Z,14.40
2017-08-31T23:27:54.787Z,14.50
2017-08-31T23:30:22.550Z,14.50
2017-08-31T23:32:50.222Z,14.30
2017-08-31T23:35:18.027Z,14.20
2017-08-31T23:37:45.838Z,14.20
2017-08-31T23:40:13.906Z,14.20
2017-08-31T23:42:41.471Z,14.10
2017-08-31T23:45:09.135Z,14.10
2017-08-31T23:47:37.826Z,14.10
2017-08-31T23:50:05.511Z,14.20
2017-08-31T23:52:33.467Z,14.20
2017-08-31T23:55:01.053Z,14.10
2017-08-31T23:57:28.868Z,14.20
2017-08-31T23:59:56.498Z,14.20
